createdAt,value
2022-09-17T00:01:33.285Z,99210.56
2022-09-17T00:04:04.643Z,99216.31
2022-09-17T00:06:32.910Z,99212.72
2022-09-17T00:09:00.490Z,99208.28
2022-09-17T00:11:29.131Z,99209.13
2022-09-17T00:14:00.201Z,99212.41
2022-09-17T00:16:29.413Z,99215.84
2022-09-17T00:18:57.494Z,99211.44
2022-09-17T00:21:25.604Z,99218.31
2022-09-17T00:23:57.247Z,99213.75
2022-09-17T00:26:25.167Z,99218.00
2022-09-17T00:28:53.427Z,99214.59
2022-09-17T00:31:22.825Z,99207.53
2022-09-17T00:33:50.687Z,99216.22
2022-09-17T00:36:20.552Z,99223.25
2022-09-17T00:38:49.803Z,99221.31
2022-09-17T00:41:17.578Z,99215.91
2022-09-17T00:43:47.903Z,99215.91
2022-09-17T00:46:32.771Z,99217.53
2022-09-17T00:49:02.185Z,99222.63
2022-09-17T00:51:32.258Z,99215.75
2022-09-17T00:54:01.769Z,99215.75
2022-09-17T00:56:30.967Z,99221.16
2022-09-17T00:58:58.874Z,99218.53
2022-09-17T01:01:26.747Z,99217.69
2022-09-17T01:03:55.739Z,99229.00
2022-09-17T01:06:26.806Z,99233.72
2022-09-17T01:09:02.863Z,99236.50
2022-09-17T01:11:37.066Z,99232.09
2022-09-17T01:14:12.127Z,99236.50
2022-09-17T01:16:42.726Z,99235.53
2022-09-17T01:19:29.947Z,99237.31
2022-09-17T01:22:02.287Z,99243.41
2022-09-17T01:24:47.733Z,99238.47
2022-09-17T01:27:37.191Z,99242.03
2022-09-17T01:30:13.583Z,99232.25
2022-09-17T01:32:44.304Z,99235.69
2022-09-17T01:35:15.459Z,99238.31
2022-09-17T01:37:48.522Z,99238.31
2022-09-17T01:40:18.568Z,99237.31
2022-09-17T01:42:50.898Z,99236.50
2022-09-17T01:45:20.155Z,99236.66
2022-09-17T01:47:50.873Z,99233.53
2022-09-17T01:50:21.117Z,99230.53
2022-09-17T01:52:52.391Z,99234.13
2022-09-17T01:55:22.646Z,99241.31
2022-09-17T01:57:54.343Z,99234.59
2022-09-17T02:00:22.250Z,99234.88
2022-09-17T02:02:54.819Z,99236.00
2022-09-17T02:05:25.278Z,99235.34
2022-09-17T02:07:55.577Z,99231.22
2022-09-17T02:10:25.638Z,99238.25
2022-09-17T02:12:55.289Z,99238.56
2022-09-17T02:15:25.219Z,99230.31
2022-09-17T02:17:55.855Z,99225.25
2022-09-17T02:20:25.963Z,99229.78
2022-09-17T02:22:56.694Z,99233.25
2022-09-17T02:25:27.509Z,99241.25
2022-09-17T02:27:59.555Z,99245.66
2022-09-17T02:30:27.547Z,99244.69
2022-09-17T02:32:56.920Z,99237.66
2022-09-17T02:35:24.524Z,99233.25
2022-09-17T02:37:53.263Z,99243.03
2022-09-17T02:40:22.477Z,99241.25
2022-09-17T02:42:59.787Z,99245.66
2022-09-17T02:45:34.075Z,99249.25
2022-09-17T02:48:08.694Z,99248.56
2022-09-17T02:50:44.146Z,99244.47
2022-09-17T02:53:20.870Z,99246.13
2022-09-17T02:55:52.081Z,99249.69
2022-09-17T02:58:23.997Z,99254.94
2022-09-17T03:00:51.942Z,99248.06
2022-09-17T03:03:24.622Z,99247.91
2022-09-17T03:05:52.273Z,99254.28
2022-09-17T03:08:20.355Z,99259.50
2022-09-17T03:10:49.571Z,99260.63
2022-09-17T03:13:17.229Z,99255.38
2022-09-17T03:15:44.862Z,99253.75
2022-09-17T03:18:12.503Z,99257.50
2022-09-17T03:20:41.463Z,99252.41
2022-09-17T03:23:09.190Z,99251.56
2022-09-17T03:25:36.793Z,99249.94
2022-09-17T03:28:04.521Z,99251.56
2022-09-17T03:30:32.110Z,99254.34
2022-09-17T03:32:59.698Z,99254.34
2022-09-17T03:35:27.326Z,99254.34
2022-09-17T03:37:56.283Z,99252.56
2022-09-17T03:40:23.940Z,99251.03
2022-09-17T03:42:51.586Z,99242.69
2022-09-17T03:45:19.220Z,99251.91
2022-09-17T03:47:46.824Z,99253.88
2022-09-17T03:50:14.500Z,99255.97
2022-09-17T03:52:43.922Z,99254.63
2022-09-17T03:55:12.904Z,99245.94
2022-09-17T03:57:40.538Z,99250.63
2022-09-17T04:00:08.930Z,99253.38
2022-09-17T04:02:36.581Z,99258.91
2022-09-17T04:05:04.316Z,99256.44
2022-09-17T04:07:31.914Z,99262.00
2022-09-17T04:09:59.502Z,99265.56
2022-09-17T04:12:28.458Z,99258.84
2022-09-17T04:14:56.065Z,99267.22
2022-09-17T04:17:23.703Z,99262.66
2022-09-17T04:19:51.451Z,99264.44
2022-09-17T04:22:19.046Z,99272.97
2022-09-17T04:24:46.636Z,99272.13
2022-09-17T04:27:14.240Z,99269.38
2022-09-17T04:29:43.250Z,99272.81
2022-09-17T04:32:10.868Z,99263.84
2022-09-17T04:34:38.482Z,99270.75
2022-09-17T04:37:06.114Z,99269.63
2022-09-17T04:39:33.750Z,99269.47
2022-09-17T04:42:01.380Z,99262.47
2022-09-17T04:44:28.986Z,99270.97
2022-09-17T04:46:58.025Z,99266.56
2022-09-17T04:49:29.783Z,99263.66
2022-09-17T04:51:57.691Z,99268.22
2022-09-17T04:54:25.327Z,99269.88
2022-09-17T04:56:53.012Z,99270.81
2022-09-17T04:59:20.613Z,99271.66
2022-09-17T05:01:49.526Z,99275.09
2022-09-17T05:04:18.585Z,99265.31
2022-09-17T05:06:46.171Z,99271.38
2022-09-17T05:09:14.812Z,99276.44
2022-09-17T05:11:42.522Z,99279.06
2022-09-17T05:14:14.131Z,99273.84
2022-09-17T05:16:41.797Z,99279.91
2022-09-17T05:19:09.461Z,99283.75
2022-09-17T05:21:38.548Z,99277.72
2022-09-17T05:24:06.258Z,99280.63
2022-09-17T05:26:34.054Z,99285.31
2022-09-17T05:29:01.697Z,99291.69
2022-09-17T05:31:29.401Z,99285.63
2022-09-17T05:33:57.033Z,99292.13
2022-09-17T05:36:25.143Z,99293.06
2022-09-17T05:38:56.717Z,99295.53
2022-09-17T05:41:24.357Z,99286.75
2022-09-17T05:43:52.149Z,99296.38
2022-09-17T05:46:19.902Z,99288.81
2022-09-17T05:48:47.535Z,99295.03
2022-09-17T05:51:15.166Z,99296.66
2022-09-17T05:53:42.763Z,99302.28
2022-09-17T05:56:12.627Z,99302.50
2022-09-17T05:58:40.239Z,99305.22
2022-09-17T06:01:08.173Z,99307.13
2022-09-17T06:03:35.794Z,99310.78
2022-09-17T06:06:03.379Z,99305.81
2022-09-17T06:08:30.984Z,99312.09
2022-09-17T06:11:02.272Z,99304.63
2022-09-17T06:13:31.818Z,99314.66
2022-09-17T06:15:59.487Z,99312.53
2022-09-17T06:18:28.504Z,99312.94
2022-09-17T06:20:56.592Z,99313.31
2022-09-17T06:23:24.412Z,99306.78
2022-09-17T06:25:53.723Z,99310.75
2022-09-17T06:28:21.403Z,99313.59
2022-09-17T06:30:52.724Z,99312.16
2022-09-17T06:33:20.361Z,99321.88
2022-09-17T06:35:47.971Z,99327.50
2022-09-17T06:38:15.984Z,99335.34
2022-09-17T06:40:43.698Z,99319.94
2022-09-17T06:43:11.326Z,99322.56
2022-09-17T06:45:39.526Z,99328.47
2022-09-17T06:48:08.725Z,99322.94
2022-09-17T06:50:40.616Z,99329.66
2022-09-17T06:53:10.330Z,99336.63
2022-09-17T06:55:37.951Z,99332.28
2022-09-17T06:58:05.591Z,99340.81
2022-09-17T07:00:33.367Z,99342.59
2022-09-17T07:03:01.811Z,99343.59
2022-09-17T07:05:32.911Z,99346.22
2022-09-17T07:08:02.362Z,99354.88
2022-09-17T07:10:30.435Z,99356.69
2022-09-17T07:12:59.917Z,99364.25
2022-09-17T07:15:27.560Z,99367.38
2022-09-17T07:17:55.157Z,99360.19
2022-09-17T07:20:23.217Z,99366.91
2022-09-17T07:22:58.395Z,99366.47
2022-09-17T07:25:26.650Z,99371.41
2022-09-17T07:27:54.370Z,99365.84
2022-09-17T07:30:21.992Z,99375.88
2022-09-17T07:32:49.584Z,99378.03
2022-09-17T07:35:17.756Z,99373.84
2022-09-17T07:37:45.437Z,99372.09
2022-09-17T07:40:14.426Z,99374.09
2022-09-17T07:42:42.292Z,99375.25
2022-09-17T07:45:10.233Z,99373.00
2022-09-17T07:47:41.535Z,99371.38
2022-09-17T07:50:09.659Z,99377.16
2022-09-17T07:52:37.422Z,99369.91
2022-09-17T07:55:05.251Z,99377.31
2022-09-17T07:57:34.220Z,99371.75
2022-09-17T08:00:01.855Z,99382.94
2022-09-17T08:02:29.779Z,99377.69
2022-09-17T08:04:57.449Z,99384.09
2022-09-17T08:07:25.038Z,99394.44
2022-09-17T08:09:53.142Z,99388.88
2022-09-17T08:12:20.720Z,99383.16
2022-09-17T08:14:49.687Z,99390.09
2022-09-17T08:17:17.509Z,99396.66
2022-09-17T08:19:45.091Z,99393.56
2022-09-17T08:22:12.689Z,99398.81
2022-09-17T08:24:40.291Z,99400.78
2022-09-17T08:27:07.888Z,99399.97
2022-09-17T08:29:35.573Z,99395.22
2022-09-17T08:32:04.802Z,99405.41
2022-09-17T08:34:32.382Z,99401.78
2022-09-17T08:36:59.989Z,99396.53
2022-09-17T08:39:27.604Z,99409.50
2022-09-17T08:42:03.329Z,99410.53
2022-09-17T08:44:33.209Z,99405.97
2022-09-17T08:47:01.915Z,99414.00
2022-09-17T08:49:36.187Z,99419.44
2022-09-17T08:52:18.630Z,99419.25
2022-09-17T08:54:49.863Z,99427.81
2022-09-17T08:57:23.494Z,99425.19
2022-09-17T08:59:55.190Z,99430.94
2022-09-17T09:02:30.517Z,99441.66
2022-09-17T09:05:13.399Z,99449.38
2022-09-17T09:07:43.603Z,99438.38
2022-09-17T09:10:15.177Z,99446.75
2022-09-17T09:12:43.845Z,99447.53
2022-09-17T09:15:19.380Z,99452.16
2022-09-17T09:17:48.693Z,99450.16
2022-09-17T09:20:18.969Z,99447.53
2022-09-17T09:22:48.271Z,99449.06
2022-09-17T09:25:24.145Z,99454.34
2022-09-17T09:27:57.958Z,99453.06
2022-09-17T09:30:26.841Z,99451.25
2022-09-17T09:32:59.072Z,99452.09
2022-09-17T09:35:28.939Z,99458.50
2022-09-17T09:37:58.599Z,99455.69
2022-09-17T09:40:33.881Z,99466.22
2022-09-17T09:43:02.702Z,99466.69
2022-09-17T09:45:39.093Z,99462.09
2022-09-17T09:48:10.525Z,99467.69
2022-09-17T09:51:05.338Z,99468.19
2022-09-17T09:53:39.017Z,99473.13
2022-09-17T09:56:13.797Z,99474.94
2022-09-17T09:58:42.243Z,99477.25
2022-09-17T10:01:13.767Z,99484.19
2022-09-17T10:03:42.211Z,99477.75
2022-09-17T10:06:12.260Z,99490.72
2022-09-17T10:08:40.566Z,99492.38
2022-09-17T10:11:19.097Z,99486.59
2022-09-17T10:13:46.948Z,99494.16
2022-09-17T10:16:18.866Z,99498.94
2022-09-17T10:18:47.091Z,99496.19
2022-09-17T10:21:22.294Z,99496.69
2022-09-17T10:23:50.807Z,99501.78
2022-09-17T10:26:23.577Z,99492.75
2022-09-17T10:28:52.346Z,99493.41
2022-09-17T10:31:20.181Z,99500.47
2022-09-17T10:33:56.491Z,99506.41
2022-09-17T10:36:39.183Z,99500.13
2022-09-17T10:39:20.312Z,99501.47
2022-09-17T10:41:55.132Z,99497.00
2022-09-17T10:44:23.851Z,99497.00
2022-09-17T10:46:52.181Z,99494.22
2022-09-17T10:49:29.154Z,99505.75
2022-09-17T10:52:06.554Z,99494.22
2022-09-17T10:54:45.979Z,99498.72
2022-09-17T10:57:18.953Z,99495.41
2022-09-17T11:00:10.705Z,99501.47
2022-09-17T11:02:56.118Z,99501.19
2022-09-17T11:05:39.246Z,99500.00
2022-09-17T11:08:12.023Z,99499.69
2022-09-17T11:10:44.509Z,99507.75
2022-09-17T11:13:19.196Z,99506.13
2022-09-17T11:15:53.289Z,99507.25
2022-09-17T11:18:29.126Z,99511.69
2022-09-17T11:21:00.100Z,99516.78
2022-09-17T11:23:51.041Z,99527.47
2022-09-17T11:26:27.515Z,99542.09
2022-09-17T11:28:58.926Z,99563.50
2022-09-17T11:31:31.810Z,99562.94
2022-09-17T11:34:14.263Z,99571.09
2022-09-17T11:36:47.336Z,99574.34
2022-09-17T11:39:18.655Z,99566.31
2022-09-17T11:41:47.998Z,99568.28
2022-09-17T11:44:16.630Z,99569.25
2022-09-17T11:46:46.939Z,99574.16
2022-09-17T11:49:26.966Z,99563.66
2022-09-17T11:51:56.995Z,99569.75
2022-09-17T11:54:28.798Z,99579.25
2022-09-17T11:57:00.935Z,99574.03
2022-09-17T11:59:32.915Z,99578.66
2022-09-17T12:02:03.603Z,99578.19
2022-09-17T12:04:36.599Z,99568.56
2022-09-17T12:07:12.387Z,99571.09
2022-09-17T12:09:44.224Z,99570.84
2022-09-17T12:12:37.875Z,99567.13
2022-09-17T12:15:07.074Z,99570.22
2022-09-17T12:17:38.098Z,99567.91
2022-09-17T12:20:09.582Z,99559.84
2022-09-17T12:22:41.056Z,99561.38
2022-09-17T12:25:13.992Z,99566.78
2022-09-17T12:27:45.710Z,99562.00
2022-09-17T12:30:16.464Z,99569.41
2022-09-17T12:32:52.199Z,99568.09
2022-09-17T12:35:46.404Z,99566.16
2022-09-17T12:38:22.923Z,99578.78
2022-09-17T12:40:55.478Z,99587.75
2022-09-17T12:43:33.348Z,99584.56
2022-09-17T12:46:06.260Z,99593.22
2022-09-17T12:48:46.552Z,99589.13
2022-09-17T12:51:20.545Z,99586.34
2022-09-17T12:53:54.095Z,99582.41
2022-09-17T12:56:30.027Z,99584.88
2022-09-17T12:59:06.276Z,99591.78
2022-09-17T13:01:37.547Z,99592.44
2022-09-17T13:04:12.944Z,99597.72
2022-09-17T13:06:53.746Z,99598.19
2022-09-17T13:09:39.213Z,99607.06
2022-09-17T13:12:25.626Z,99599.28
2022-09-17T13:14:58.794Z,99598.59
2022-09-17T13:17:29.791Z,99610.25
2022-09-17T13:20:01.375Z,99610.88
2022-09-17T13:22:30.829Z,99603.94
2022-09-17T13:25:06.434Z,99611.81
2022-09-17T13:27:38.707Z,99628.66
2022-09-17T13:30:07.377Z,99631.38
2022-09-17T13:32:58.922Z,99620.13
2022-09-17T13:35:53.412Z,99622.72
2022-09-17T13:38:23.921Z,99624.88
2022-09-17T13:40:52.317Z,99619.94
2022-09-17T13:43:26.367Z,99616.31
2022-09-17T13:46:12.774Z,99609.13
2022-09-17T13:48:49.289Z,99610.75
2022-09-17T13:51:35.236Z,99614.22
2022-09-17T13:54:04.154Z,99618.34
2022-09-17T13:56:33.987Z,99615.56
2022-09-17T13:59:08.576Z,99622.28
2022-09-17T14:01:54.844Z,99629.22
2022-09-17T14:04:36.211Z,99624.31
2022-09-17T14:07:27.861Z,99630.66
2022-09-17T14:09:56.109Z,99629.69
2022-09-17T14:12:44.461Z,99637.31
2022-09-17T14:15:26.949Z,99631.13
2022-09-17T14:17:55.954Z,99633.00
2022-09-17T14:20:24.591Z,99634.31
2022-09-17T14:22:57.539Z,99628.28
2022-09-17T14:25:30.336Z,99632.75
2022-09-17T14:27:59.279Z,99632.06
2022-09-17T14:30:28.078Z,99636.38
2022-09-17T14:33:02.875Z,99636.38
2022-09-17T14:35:32.426Z,99634.69
2022-09-17T14:38:01.496Z,99631.75
2022-09-17T14:40:29.995Z,99637.38
2022-09-17T14:42:58.879Z,99633.28
2022-09-17T14:45:29.333Z,99628.69
2022-09-17T14:48:11.769Z,99633.13
2022-09-17T14:50:40.905Z,99637.75
2022-09-17T14:53:09.042Z,99651.22
2022-09-17T14:55:41.717Z,99650.84
2022-09-17T14:58:25.850Z,99652.00
2022-09-17T15:00:54.414Z,99656.56
2022-09-17T15:03:22.795Z,99651.16
2022-09-17T15:05:52.215Z,99653.13
2022-09-17T15:08:21.676Z,99649.53
2022-09-17T15:10:50.553Z,99647.03
2022-09-17T15:13:19.591Z,99640.78
2022-09-17T15:16:01.781Z,99648.69
2022-09-17T15:18:34.943Z,99648.19
2022-09-17T15:21:05.132Z,99647.38
2022-09-17T15:23:34.990Z,99654.56
2022-09-17T15:26:04.339Z,99657.34
2022-09-17T15:28:35.045Z,99655.19
2022-09-17T15:31:02.822Z,99654.72
2022-09-17T15:33:32.754Z,99660.28
2022-09-17T15:36:01.606Z,99663.88
2022-09-17T15:38:32.956Z,99658.75
2022-09-17T15:41:16.572Z,99662.38
2022-09-17T15:43:49.371Z,99663.38
2022-09-17T15:46:22.928Z,99659.22
2022-09-17T15:48:50.807Z,99658.72
2022-09-17T15:51:23.755Z,99655.56
2022-09-17T15:53:56.434Z,99661.00
2022-09-17T15:56:26.651Z,99666.72
2022-09-17T15:58:55.751Z,99663.41
2022-09-17T16:01:38.498Z,99661.06
2022-09-17T16:04:22.974Z,99667.16
2022-09-17T16:06:55.177Z,99665.00
2022-09-17T16:09:50.068Z,99667.13
2022-09-17T16:12:20.176Z,99671.56
2022-09-17T16:14:48.868Z,99672.25
2022-09-17T16:17:33.009Z,99671.25
2022-09-17T16:20:05.920Z,99665.84
2022-09-17T16:22:33.935Z,99676.34
2022-09-17T16:25:01.533Z,99705.25
2022-09-17T16:27:31.909Z,99704.13
2022-09-17T16:30:02.182Z,99700.66
2022-09-17T16:32:29.820Z,99703.44
2022-09-17T16:34:57.447Z,99699.31
2022-09-17T16:37:25.171Z,99705.72
2022-09-17T16:39:53.675Z,99702.69
2022-09-17T16:42:21.306Z,99699.53
2022-09-17T16:44:50.310Z,99710.50
2022-09-17T16:47:17.918Z,99704.34
2022-09-17T16:49:45.511Z,99707.66
2022-09-17T16:52:13.115Z,99716.81
2022-09-17T16:54:40.776Z,99720.56
2022-09-17T16:57:08.389Z,99736.31
2022-09-17T16:59:35.994Z,99734.44
2022-09-17T17:02:05.104Z,99735.72
2022-09-17T17:04:32.722Z,99735.19
2022-09-17T17:07:00.761Z,99742.53
2022-09-17T17:09:28.346Z,99738.53
2022-09-17T17:11:56.181Z,99746.06
2022-09-17T17:14:23.807Z,99741.25
2022-09-17T17:16:51.684Z,99737.22
2022-09-17T17:19:20.706Z,99744.31
2022-09-17T17:21:50.672Z,99741.13
2022-09-17T17:24:18.287Z,99743.22
2022-09-17T17:26:45.954Z,99745.31
2022-09-17T17:29:13.617Z,99742.31
2022-09-17T17:31:41.275Z,99746.19
2022-09-17T17:34:09.009Z,99752.56
2022-09-17T17:36:38.017Z,99757.81
2022-09-17T17:39:05.764Z,99765.28
2022-09-17T17:41:33.463Z,99763.78
2022-09-17T17:44:01.080Z,99755.22
2022-09-17T17:46:28.788Z,99759.91
2022-09-17T17:48:57.119Z,99752.19
2022-09-17T17:51:25.375Z,99752.34
2022-09-17T17:53:54.426Z,99763.53
2022-09-17T17:56:23.279Z,99761.31
2022-09-17T17:58:55.119Z,99765.06
2022-09-17T18:01:23.575Z,99772.53
2022-09-17T18:03:51.362Z,99766.59
2022-09-17T18:06:18.953Z,99765.66
2022-09-17T18:08:46.547Z,99777.97
2022-09-17T18:11:15.731Z,99784.16
2022-09-17T18:13:43.460Z,99782.22
2022-09-17T18:16:12.671Z,99783.06
2022-09-17T18:18:44.378Z,99771.03
2022-09-17T18:21:13.378Z,99770.34
2022-09-17T18:23:41.990Z,99780.72
2022-09-17T18:26:12.116Z,99780.84
2022-09-17T18:28:41.483Z,99786.88
2022-09-17T18:31:10.333Z,99781.53
2022-09-17T18:33:37.974Z,99788.59
2022-09-17T18:36:06.401Z,99784.25
2022-09-17T18:38:35.475Z,99789.41
2022-09-17T18:41:07.093Z,99786.78
2022-09-17T18:43:34.849Z,99785.97
2022-09-17T18:46:04.769Z,99789.66
2022-09-17T18:48:36.374Z,99782.63
2022-09-17T18:51:05.783Z,99792.13
2022-09-17T18:53:36.161Z,99794.91
2022-09-17T18:56:05.367Z,99791.31
2022-09-17T18:58:32.979Z,99789.66
2022-09-17T19:01:00.670Z,99794.22
2022-09-17T19:03:31.770Z,99796.84
2022-09-17T19:06:00.137Z,99794.50
2022-09-17T19:08:27.942Z,99796.28
2022-09-17T19:10:55.658Z,99792.97
2022-09-17T19:13:23.294Z,99797.41
2022-09-17T19:15:50.943Z,99799.34
2022-09-17T19:18:18.807Z,99799.63
2022-09-17T19:20:47.779Z,99802.25
2022-09-17T19:23:15.379Z,99799.91
2022-09-17T19:25:43.036Z,99797.41
2022-09-17T19:28:10.638Z,99796.31
2022-09-17T19:30:38.238Z,99797.41
2022-09-17T19:33:05.985Z,99800.03
2022-09-17T19:35:33.687Z,99797.13
2022-09-17T19:38:03.568Z,99801.56
2022-09-17T19:40:31.430Z,99800.59
2022-09-17T19:42:59.155Z,99801.56
2022-09-17T19:45:27.076Z,99810.53
2022-09-17T19:47:56.463Z,99802.66
2022-09-17T19:50:24.095Z,99808.88
2022-09-17T19:52:51.695Z,99809.72
2022-09-17T19:55:22.086Z,99810.66
2022-09-17T19:57:49.695Z,99815.09
2022-09-17T20:00:17.572Z,99813.69
2022-09-17T20:02:45.244Z,99809.44
2022-09-17T20:05:12.894Z,99813.84
2022-09-17T20:07:40.562Z,99813.84
2022-09-17T20:10:08.453Z,99820.88
2022-09-17T20:12:37.423Z,99819.22
2022-09-17T20:15:05.423Z,99813.16
2022-09-17T20:17:33.519Z,99811.34
2022-09-17T20:20:01.103Z,99809.72
2022-09-17T20:22:28.698Z,99820.47
2022-09-17T20:24:56.346Z,99822.09
2022-09-17T20:27:23.966Z,99824.91
2022-09-17T20:29:53.063Z,99827.50
2022-09-17T20:32:20.664Z,99827.78
2022-09-17T20:34:49.989Z,99827.38
2022-09-17T20:37:29.089Z,99842.38
2022-09-17T20:40:05.918Z,99836.75
2022-09-17T20:42:33.543Z,99841.41
2022-09-17T20:45:02.551Z,99847.91
2022-09-17T20:47:30.187Z,99846.50
2022-09-17T20:49:57.799Z,99844.28
2022-09-17T20:52:25.393Z,99854.22
2022-09-17T20:54:52.992Z,99851.16
2022-09-17T20:57:20.587Z,99854.19
2022-09-17T20:59:53.244Z,99858.88
2022-09-17T21:02:22.645Z,99863.41
2022-09-17T21:04:51.176Z,99858.31
2022-09-17T21:07:18.789Z,99861.34
2022-09-17T21:09:46.402Z,99861.59
2022-09-17T21:12:14.007Z,99854.97
2022-09-17T21:14:41.715Z,99856.19
2022-09-17T21:17:09.303Z,99852.91
2022-09-17T21:19:38.268Z,99860.75
2022-09-17T21:22:05.929Z,99855.78
2022-09-17T21:24:33.630Z,99858.66
2022-09-17T21:27:01.244Z,99871.03
2022-09-17T21:29:28.843Z,99867.31
2022-09-17T21:31:56.875Z,99870.34
2022-09-17T21:34:24.504Z,99867.03
2022-09-17T21:36:53.471Z,99873.34
2022-09-17T21:39:21.059Z,99872.81
2022-09-17T21:41:49.101Z,99878.28
2022-09-17T21:44:16.834Z,99874.16
2022-09-17T21:46:44.497Z,99881.03
2022-09-17T21:49:13.446Z,99876.63
2022-09-17T21:51:42.265Z,99878.81
2022-09-17T21:54:28.482Z,99886.53
2022-09-17T21:56:56.269Z,99885.00
2022-09-17T21:59:24.246Z,99878.22
2022-09-17T22:01:52.151Z,99886.22
2022-09-17T22:04:22.153Z,99875.75
2022-09-17T22:06:50.963Z,99875.34
2022-09-17T22:09:20.942Z,99872.97
2022-09-17T22:11:50.840Z,99874.88
2022-09-17T22:14:20.446Z,99871.53
2022-09-17T22:16:50.630Z,99873.59
2022-09-17T22:19:20.305Z,99873.25
2022-09-17T22:21:51.198Z,99872.28
2022-09-17T22:24:20.771Z,99880.28
2022-09-17T22:26:56.863Z,99879.47
2022-09-17T22:29:26.813Z,99880.66
2022-09-17T22:31:54.696Z,99879.25
2022-09-17T22:34:25.312Z,99877.63
2022-09-17T22:36:53.135Z,99874.69
2022-09-17T22:39:21.825Z,99873.03
2022-09-17T22:41:51.423Z,99871.38
2022-09-17T22:44:20.899Z,99874.25
2022-09-17T22:46:50.445Z,99872.03
2022-09-17T22:49:19.331Z,99864.44
2022-09-17T22:51:47.664Z,99867.97
2022-09-17T22:54:17.539Z,99870.72
2022-09-17T22:56:45.642Z,99871.81
2022-09-17T22:59:14.878Z,99872.06
2022-09-17T23:01:42.934Z,99866.13
2022-09-17T23:04:10.996Z,99873.28
2022-09-17T23:06:42.029Z,99880.53
2022-09-17T23:09:09.974Z,99874.59
2022-09-17T23:11:39.221Z,99882.69
2022-09-17T23:14:09.605Z,99880.19
2022-09-17T23:16:39.753Z,99879.75
2022-09-17T23:19:07.679Z,99879.75
2022-09-17T23:21:35.565Z,99890.09
2022-09-17T23:24:04.158Z,99895.44
2022-09-17T23:26:32.369Z,99898.19
2022-09-17T23:29:04.964Z,99887.25
2022-09-17T23:31:34.889Z,99888.34
2022-09-17T23:34:06.087Z,99888.34
2022-09-17T23:36:36.293Z,99887.75
2022-09-17T23:39:05.165Z,99884.84
2022-09-17T23:41:34.531Z,99879.72
2022-09-17T23:44:04.747Z,99887.94
2022-09-17T23:46:34.282Z,99887.34
2022-09-17T23:49:04.685Z,99887.22
2022-09-17T23:51:35.159Z,99889.94
2022-09-17T23:54:05.213Z,99893.41
2022-09-17T23:56:33.037Z,99892.44
2022-09-17T23:59:02.139Z,99885.44
